createdAt,value
2019-01-05T00:01:58.383Z,14.03
2019-01-05T00:04:37.703Z,13.97
2019-01-05T00:07:07.776Z,14.93
2019-01-05T00:09:50.156Z,15.20
2019-01-05T00:12:36.665Z,16.40
2019-01-05T00:15:22.850Z,16.00
2019-01-05T00:17:55.758Z,16.43
2019-01-05T00:20:37.825Z,14.80
2019-01-05T00:23:16.990Z,16.10
2019-01-05T00:25:52.698Z,14.00
2019-01-05T00:31:11.867Z,14.63
2019-01-05T00:33:57.029Z,14.80
2019-01-05T00:36:39.013Z,14.73
2019-01-05T00:39:27.281Z,14.87
2019-01-05T00:41:57.602Z,14.10
2019-01-05T00:44:27.760Z,13.87
2019-01-05T00:47:09.901Z,18.80
2019-01-05T00:49:58.037Z,18.67
2019-01-05T00:52:39.762Z,18.70
2019-01-05T00:55:25.370Z,16.37
2019-01-05T00:58:11.676Z,26.53
2019-01-05T01:00:58.124Z,15.43
2019-01-05T01:03:33.746Z,15.63
2019-01-05T01:06:06.697Z,15.67
2019-01-05T01:08:45.870Z,15.67
2019-01-05T01:11:21.519Z,15.13
2019-01-05T01:14:07.893Z,16.53
2019-01-05T01:16:43.832Z,15.97
2019-01-05T01:19:19.790Z,16.07
2019-01-05T01:21:49.732Z,16.17
2019-01-05T01:24:22.462Z,15.30
2019-01-05T01:26:52.389Z,16.80
2019-01-05T01:29:22.362Z,16.53
2019-01-05T01:32:08.837Z,14.87
2019-01-05T01:34:41.770Z,27.23
2019-01-05T01:37:20.840Z,33.53
2019-01-05T01:39:52.116Z,21.23
2019-01-05T01:42:22.227Z,23.87
2019-01-05T01:44:52.238Z,15.63
2019-01-05T01:47:30.995Z,15.93
2019-01-05T01:50:17.327Z,15.70
2019-01-05T01:52:56.110Z,15.77
2019-01-05T01:55:44.422Z,14.63
2019-01-05T01:58:30.768Z,16.73
2019-01-05T02:01:03.407Z,15.10
2019-01-05T02:03:46.096Z,15.33
2019-01-05T02:06:16.128Z,14.70
2019-01-05T02:08:50.314Z,15.13
2019-01-05T02:11:26.060Z,14.57
2019-01-05T02:14:15.566Z,15.30
2019-01-05T02:17:04.146Z,14.40
2019-01-05T02:19:40.006Z,15.87
2019-01-05T02:22:43.688Z,15.17
2019-01-05T02:25:48.607Z,15.90
2019-01-05T02:28:53.543Z,14.23
2019-01-05T02:31:47.959Z,15.10
2019-01-05T02:34:38.904Z,15.50
2019-01-05T02:37:30.300Z,15.80
2019-01-05T02:40:27.335Z,15.53
2019-01-05T02:43:27.161Z,15.33
2019-01-05T02:46:30.561Z,14.90
2019-01-05T02:49:24.859Z,14.37
2019-01-05T02:52:31.142Z,14.27
2019-01-05T02:55:41.687Z,14.53
2019-01-05T02:58:50.741Z,15.43
2019-01-05T03:01:32.540Z,14.90
2019-01-05T03:04:20.798Z,14.63
2019-01-05T03:07:36.014Z,14.93
2019-01-05T03:10:37.461Z,15.87
2019-01-05T03:13:22.668Z,14.30
2019-01-05T03:16:14.843Z,13.93
2019-01-05T03:19:17.151Z,14.00
2019-01-05T03:22:10.860Z,14.47
2019-01-05T03:25:19.047Z,13.77
2019-01-05T03:28:09.205Z,13.03
2019-01-05T03:31:16.030Z,13.30
2019-01-05T03:33:58.315Z,13.13
2019-01-05T03:37:04.575Z,13.30
2019-01-05T03:39:40.904Z,14.33
2019-01-05T03:42:48.783Z,12.80
2019-01-05T03:45:44.602Z,12.20
2019-01-05T03:48:40.161Z,12.83
2019-01-05T03:51:46.844Z,12.77
2019-01-05T03:55:10.336Z,12.97
2019-01-05T03:58:16.953Z,13.17
2019-01-05T04:00:56.127Z,13.10
2019-01-05T04:03:52.050Z,12.70
2019-01-05T04:06:43.511Z,13.20
2019-01-05T04:09:42.410Z,12.60
2019-01-05T04:12:39.615Z,13.57
2019-01-05T04:15:51.419Z,13.13
2019-01-05T04:19:00.954Z,12.27
2019-01-05T04:22:10.144Z,13.63
2019-01-05T04:25:13.163Z,13.07
2019-01-05T04:28:30.355Z,13.60
2019-01-05T04:31:29.282Z,13.53
2019-01-05T04:34:48.294Z,14.07
2019-01-05T04:37:48.595Z,14.20
2019-01-05T04:40:53.144Z,12.63
2019-01-05T04:44:14.998Z,13.13
2019-01-05T04:47:22.641Z,12.63
2019-01-05T04:50:19.614Z,12.63
2019-01-05T04:53:18.583Z,12.73
2019-01-05T04:56:09.954Z,14.17
2019-01-05T04:58:58.732Z,12.13
2019-01-05T05:02:03.102Z,12.40
2019-01-05T05:05:12.401Z,13.10
2019-01-05T05:08:28.097Z,11.27
2019-01-05T05:11:18.054Z,12.83
2019-01-05T05:14:12.229Z,12.83
2019-01-05T05:17:20.608Z,12.77
2019-01-05T05:20:31.425Z,12.93
2019-01-05T05:23:31.442Z,14.07
2019-01-05T05:26:22.839Z,12.97
2019-01-05T05:29:27.012Z,12.73
2019-01-05T05:32:18.182Z,12.97
2019-01-05T05:35:27.929Z,11.67
2019-01-05T05:38:44.717Z,12.47
2019-01-05T05:41:50.917Z,11.70
2019-01-05T05:44:40.853Z,12.37
2019-01-05T05:47:45.394Z,11.10
2019-01-05T05:50:40.425Z,11.80
2019-01-05T05:53:51.007Z,11.10
2019-01-05T05:56:44.022Z,11.30
2019-01-05T05:59:26.149Z,10.97
2019-01-05T06:02:18.814Z,10.90
2019-01-05T06:05:09.477Z,11.53
2019-01-05T06:07:45.405Z,10.57
2019-01-05T06:11:03.471Z,10.63
2019-01-05T06:13:51.569Z,14.55
2019-01-05T06:16:33.465Z,11.97
2019-01-05T06:19:15.314Z,10.83
2019-01-05T06:22:06.733Z,10.97
2019-01-05T06:24:54.858Z,12.03
2019-01-05T06:28:03.834Z,11.60
2019-01-05T06:30:59.577Z,12.33
2019-01-05T06:33:59.361Z,12.17
2019-01-05T06:36:47.539Z,12.27
2019-01-05T06:40:10.595Z,11.83
2019-01-05T06:43:26.367Z,11.63
2019-01-05T06:46:30.706Z,13.07
2019-01-05T06:49:26.372Z,16.77
2019-01-05T06:52:27.876Z,13.73
2019-01-05T06:55:06.425Z,13.53
2019-01-05T06:58:05.248Z,14.23
2019-01-05T07:01:28.553Z,14.40
2019-01-05T07:04:40.737Z,14.33
2019-01-05T07:07:51.046Z,14.93
2019-01-05T07:10:52.454Z,14.77
2019-01-05T07:14:02.606Z,16.65
2019-01-05T07:16:52.324Z,13.10
2019-01-05T07:19:41.193Z,13.60
2019-01-05T07:22:35.329Z,13.83
2019-01-05T07:25:41.358Z,15.07
2019-01-05T07:29:06.151Z,14.50
2019-01-05T07:32:08.754Z,16.47
2019-01-05T07:35:24.850Z,18.07
2019-01-05T07:38:39.559Z,18.50
2019-01-05T07:41:18.623Z,17.33
2019-01-05T07:44:32.451Z,17.60
2019-01-05T07:47:40.355Z,16.30
2019-01-05T07:50:39.336Z,16.43
2019-01-05T07:53:34.816Z,14.60
2019-01-05T07:56:23.176Z,16.00
2019-01-05T07:59:11.581Z,14.90
2019-01-05T08:01:59.681Z,14.17
2019-01-05T08:05:06.352Z,15.07
2019-01-05T08:08:17.548Z,15.63
2019-01-05T08:11:16.023Z,16.57
2019-01-05T08:13:57.926Z,15.60
2019-01-05T08:16:48.871Z,13.43
2019-01-05T08:19:44.513Z,14.93
2019-01-05T08:22:35.691Z,16.47
2019-01-05T08:25:20.897Z,16.60
2019-01-05T08:28:28.259Z,16.40
2019-01-05T08:31:22.705Z,16.60
2019-01-05T08:34:19.290Z,15.33
2019-01-05T08:37:16.023Z,16.67
2019-01-05T08:40:17.659Z,16.77
2019-01-05T08:43:36.425Z,17.33
2019-01-05T08:46:59.383Z,15.73
2019-01-05T08:49:32.775Z,17.23
2019-01-05T08:52:06.031Z,16.03
2019-01-05T08:55:04.384Z,17.27
2019-01-05T08:58:03.264Z,15.67
2019-01-05T09:00:51.606Z,15.03
2019-01-05T09:03:24.867Z,16.33
2019-01-05T09:06:37.645Z,16.20
2019-01-05T09:09:13.346Z,14.77
2019-01-05T09:12:01.257Z,15.13
2019-01-05T09:14:50.752Z,13.40
2019-01-05T09:17:49.684Z,15.63
2019-01-05T09:21:04.107Z,15.10
2019-01-05T09:23:40.260Z,13.97
2019-01-05T09:26:51.478Z,12.33
2019-01-05T09:29:27.465Z,12.53
2019-01-05T09:32:20.487Z,12.57
2019-01-05T09:35:33.575Z,12.43
2019-01-05T09:38:33.383Z,12.07
2019-01-05T09:41:36.881Z,11.90
2019-01-05T09:44:18.425Z,11.37
2019-01-05T09:47:29.496Z,10.43
2019-01-05T09:50:31.396Z,11.43
2019-01-05T09:53:54.805Z,10.83
2019-01-05T09:56:47.190Z,9.07
2019-01-05T10:00:05.899Z,11.30
2019-01-05T10:03:06.092Z,11.13
2019-01-05T10:05:51.061Z,10.23
2019-01-05T10:08:49.870Z,10.73
2019-01-05T10:12:05.679Z,11.10
2019-01-05T10:15:03.914Z,11.20
2019-01-05T10:18:10.042Z,10.67
2019-01-05T10:21:02.972Z,11.73
2019-01-05T10:23:47.507Z,10.87
2019-01-05T10:26:49.148Z,11.40
2019-01-05T10:30:00.212Z,11.50
2019-01-05T10:33:00.520Z,11.23
2019-01-05T10:35:55.031Z,11.30
2019-01-05T10:38:37.516Z,12.00
2019-01-05T10:41:36.481Z,13.40
2019-01-05T10:44:41.077Z,12.47
2019-01-05T10:47:31.217Z,12.57
2019-01-05T10:50:30.483Z,13.57
2019-01-05T10:53:29.585Z,13.37
2019-01-05T10:56:08.973Z,13.80
2019-01-05T10:59:12.262Z,14.43
2019-01-05T11:02:15.712Z,12.53
2019-01-05T11:04:51.597Z,13.00
2019-01-05T11:07:57.716Z,12.30
2019-01-05T11:11:05.562Z,11.97
2019-01-05T11:14:27.645Z,10.77
2019-01-05T11:17:50.982Z,11.33
2019-01-05T11:20:49.336Z,9.83
2019-01-05T11:23:53.229Z,9.77
2019-01-05T11:26:58.615Z,9.73
2019-01-05T11:29:48.369Z,9.80
2019-01-05T11:33:00.647Z,9.00
2019-01-05T11:35:57.873Z,8.57
2019-01-05T11:38:55.043Z,8.80
2019-01-05T11:41:36.986Z,9.50
2019-01-05T11:44:28.568Z,8.53
2019-01-05T11:47:07.817Z,7.23
2019-01-05T11:50:00.750Z,6.80
2019-01-05T11:53:24.549Z,7.07
2019-01-05T11:56:34.263Z,6.23
2019-01-05T11:59:43.556Z,6.37
2019-01-05T12:02:42.338Z,5.63
2019-01-05T12:05:39.812Z,27.50
2019-01-05T12:08:15.933Z,11.77
2019-01-05T12:11:07.055Z,7.00
2019-01-05T12:14:32.635Z,5.33
2019-01-05T12:17:25.754Z,5.03
2019-01-05T12:20:48.853Z,5.57
2019-01-05T12:24:00.363Z,4.87
2019-01-05T12:27:02.189Z,4.80
2019-01-05T12:30:05.128Z,4.50
2019-01-05T12:33:14.477Z,4.77
2019-01-05T12:36:16.586Z,4.00
2019-01-05T12:39:06.586Z,4.07
2019-01-05T12:42:09.938Z,3.70
2019-01-05T12:44:55.132Z,4.83
2019-01-05T12:48:00.189Z,3.70
2019-01-05T12:51:00.653Z,3.60
2019-01-05T12:54:19.515Z,9.43
2019-01-05T12:57:28.966Z,3.70
2019-01-05T13:00:53.448Z,3.90
2019-01-05T13:03:52.262Z,4.10
2019-01-05T13:06:54.217Z,4.03
2019-01-05T13:10:00.851Z,3.73
2019-01-05T13:12:43.187Z,3.60
2019-01-05T13:15:37.741Z,3.70
2019-01-05T13:18:22.749Z,4.20
2019-01-05T13:21:37.391Z,4.10
2019-01-05T13:24:36.266Z,3.90
2019-01-05T13:27:39.199Z,3.90
2019-01-05T13:30:32.086Z,3.70
2019-01-05T13:33:38.439Z,4.10
2019-01-05T13:36:20.996Z,5.17
2019-01-05T13:39:36.500Z,4.90
2019-01-05T13:42:46.014Z,4.43
2019-01-05T13:45:46.344Z,5.90
2019-01-05T13:48:47.063Z,5.87
2019-01-05T13:51:51.052Z,4.93
2019-01-05T13:54:21.198Z,5.63
2019-01-05T13:56:51.492Z,5.53
2019-01-05T13:59:25.193Z,6.20
2019-01-05T14:02:12.108Z,5.20
2019-01-05T14:04:42.209Z,6.53
2019-01-05T14:07:14.916Z,5.70
2019-01-05T14:10:01.294Z,5.63
2019-01-05T14:12:43.046Z,5.97
2019-01-05T14:15:29.262Z,6.23
2019-01-05T14:17:59.298Z,5.90
2019-01-05T14:20:45.627Z,6.80
2019-01-05T14:23:22.755Z,5.87
2019-01-05T14:26:07.999Z,6.13
2019-01-05T14:28:38.101Z,6.50
2019-01-05T14:31:24.583Z,6.67
2019-01-05T14:34:10.943Z,6.87
2019-01-05T14:36:53.178Z,7.37
2019-01-05T14:39:39.629Z,7.13
2019-01-05T14:42:15.457Z,6.97
2019-01-05T14:44:51.616Z,7.27
2019-01-05T14:47:37.953Z,6.97
2019-01-05T14:50:12.011Z,7.47
2019-01-05T14:52:44.922Z,7.37
2019-01-05T14:55:18.112Z,7.10
2019-01-05T14:57:51.254Z,7.57
2019-01-05T15:00:33.357Z,8.17
2019-01-05T15:03:03.458Z,7.43
2019-01-05T15:05:39.354Z,7.70
2019-01-05T15:08:15.197Z,7.77
2019-01-05T15:11:01.375Z,6.30
2019-01-05T15:13:40.755Z,7.23
2019-01-05T15:16:27.038Z,6.97
2019-01-05T15:18:57.173Z,7.50
2019-01-05T15:21:29.190Z,6.77
2019-01-05T15:24:02.015Z,7.97
2019-01-05T15:26:32.168Z,8.03
2019-01-05T15:29:07.993Z,7.73
2019-01-05T15:31:47.372Z,7.57
2019-01-05T15:34:34.017Z,8.53
2019-01-05T15:37:11.722Z,7.43
2019-01-05T15:39:58.054Z,8.13
2019-01-05T15:42:46.744Z,8.43
2019-01-05T15:45:22.681Z,8.10
2019-01-05T15:48:09.341Z,7.07
2019-01-05T15:50:45.370Z,6.70
2019-01-05T15:53:15.569Z,6.77
2019-01-05T15:55:48.538Z,8.10
2019-01-05T15:58:25.021Z,6.97
2019-01-05T16:00:55.078Z,6.77
2019-01-05T16:03:30.905Z,6.80
2019-01-05T16:06:17.323Z,7.60
2019-01-05T16:08:47.505Z,7.73
2019-01-05T16:11:23.343Z,8.77
2019-01-05T16:13:56.522Z,8.68
2019-01-05T16:16:29.278Z,9.73
2019-01-05T16:19:11.234Z,7.57
2019-01-05T16:21:56.312Z,7.00
2019-01-05T16:24:38.407Z,6.27
2019-01-05T16:27:24.781Z,7.90
2019-01-05T16:30:00.780Z,7.23
2019-01-05T16:32:36.213Z,8.03
2019-01-05T16:35:07.008Z,9.20
2019-01-05T16:37:53.672Z,7.77
2019-01-05T16:40:23.867Z,8.53
2019-01-05T16:43:02.782Z,9.00
2019-01-05T16:45:32.903Z,8.67
2019-01-05T16:48:19.187Z,9.27
2019-01-05T16:51:07.303Z,7.43
2019-01-05T16:53:53.689Z,8.43
2019-01-05T16:56:26.432Z,7.80
2019-01-05T16:58:58.887Z,8.17
2019-01-05T17:01:45.337Z,6.90
2019-01-05T17:04:18.107Z,7.57
2019-01-05T17:07:04.644Z,6.90
2019-01-05T17:09:37.555Z,8.60
2019-01-05T17:12:29.228Z,8.23
2019-01-05T17:15:11.563Z,8.63
2019-01-05T17:17:44.314Z,10.67
2019-01-05T17:20:14.411Z,6.97
2019-01-05T17:23:00.866Z,7.07
2019-01-05T17:25:42.921Z,6.50
2019-01-05T17:28:13.218Z,6.83
2019-01-05T17:30:49.186Z,6.93
2019-01-05T17:33:35.826Z,8.43
2019-01-05T17:36:22.133Z,6.97
2019-01-05T17:39:08.246Z,7.00
2019-01-05T17:41:41.129Z,7.97
2019-01-05T17:44:17.054Z,7.43
2019-01-05T17:47:02.436Z,8.23
2019-01-05T17:49:32.430Z,8.47
2019-01-05T17:52:08.380Z,7.73
2019-01-05T17:54:38.716Z,10.10
2019-01-05T17:57:08.731Z,15.50
2019-01-05T17:59:57.216Z,7.23
2019-01-05T18:02:27.499Z,8.70
2019-01-05T18:04:57.747Z,8.03
2019-01-05T18:07:30.782Z,8.37
2019-01-05T18:10:10.073Z,7.67
2019-01-05T18:12:49.534Z,8.70
2019-01-05T18:15:22.274Z,8.57
2019-01-05T18:18:01.275Z,7.90
2019-01-05T18:20:34.413Z,7.90
2019-01-05T18:23:10.258Z,8.43
2019-01-05T18:25:40.457Z,8.07
2019-01-05T18:28:27.093Z,8.73
2019-01-05T18:31:05.917Z,8.63
2019-01-05T18:33:53.960Z,8.80
2019-01-05T18:36:23.987Z,8.83
2019-01-05T18:38:53.982Z,8.63
2019-01-05T18:41:32.664Z,8.80
2019-01-05T18:44:08.772Z,9.10
2019-01-05T18:46:38.751Z,8.63
2019-01-05T18:49:27.306Z,9.07
2019-01-05T18:52:10.942Z,8.80
2019-01-05T18:54:57.318Z,8.10
2019-01-05T18:57:43.990Z,8.00
2019-01-05T19:00:20.166Z,8.00
2019-01-05T19:02:59.621Z,8.47
2019-01-05T19:05:32.329Z,7.50
2019-01-05T19:08:02.502Z,8.53
2019-01-05T19:10:50.491Z,8.90
2019-01-05T19:13:36.977Z,9.03
2019-01-05T19:16:09.813Z,8.57
2019-01-05T19:18:48.481Z,9.13
2019-01-05T19:21:27.076Z,14.93
2019-01-05T19:23:57.911Z,9.13
2019-01-05T19:26:44.419Z,8.83
2019-01-05T19:29:30.881Z,9.87
2019-01-05T19:32:04.098Z,9.13
2019-01-05T19:34:34.055Z,8.57
2019-01-05T19:37:22.205Z,7.70
2019-01-05T19:39:55.136Z,9.00
2019-01-05T19:42:27.864Z,8.27
2019-01-05T19:45:10.425Z,8.37
2019-01-05T19:47:43.426Z,7.60
2019-01-05T19:50:19.059Z,8.73
2019-01-05T19:53:04.594Z,7.73
2019-01-05T19:55:46.698Z,7.87
2019-01-05T19:58:32.829Z,8.90
2019-01-05T20:01:05.884Z,8.70
2019-01-05T20:03:52.505Z,8.57
2019-01-05T20:06:31.495Z,8.53
2019-01-05T20:09:13.166Z,8.87
2019-01-05T20:11:58.487Z,8.43
2019-01-05T20:14:37.577Z,8.93
2019-01-05T20:17:24.155Z,9.13
2019-01-05T20:20:10.782Z,9.33
2019-01-05T20:22:46.873Z,8.80
2019-01-05T20:25:32.375Z,8.07
2019-01-05T20:28:20.550Z,9.10
2019-01-05T20:30:53.188Z,9.80
2019-01-05T20:33:41.738Z,9.37
2019-01-05T20:36:11.848Z,9.10
2019-01-05T20:38:44.781Z,9.60
2019-01-05T20:41:20.608Z,7.80
2019-01-05T20:44:02.641Z,8.70
2019-01-05T20:46:38.651Z,8.27
2019-01-05T20:49:23.853Z,8.07
2019-01-05T20:52:08.897Z,8.10
2019-01-05T20:54:55.549Z,8.80
2019-01-05T20:57:31.623Z,9.33
2019-01-05T21:00:07.367Z,8.80
2019-01-05T21:02:53.305Z,8.87
2019-01-05T21:05:39.649Z,8.03
2019-01-05T21:08:12.803Z,7.97
2019-01-05T21:10:45.912Z,9.30
2019-01-05T21:13:15.896Z,9.17
2019-01-05T21:15:45.874Z,8.47
2019-01-05T21:18:15.822Z,7.23
2019-01-05T21:21:02.336Z,7.23
2019-01-05T21:23:49.094Z,7.00
2019-01-05T21:26:35.222Z,7.57
2019-01-05T21:29:14.243Z,7.03
2019-01-05T21:31:47.153Z,6.97
2019-01-05T21:34:22.767Z,7.00
2019-01-05T21:37:09.014Z,7.00
2019-01-05T21:39:37.482Z,7.37
2019-01-05T21:42:24.008Z,8.87
2019-01-05T21:44:57.008Z,8.10
2019-01-05T21:47:43.159Z,8.03
2019-01-05T21:50:31.628Z,8.80
2019-01-05T21:53:16.704Z,8.53
2019-01-05T21:56:02.840Z,8.23
2019-01-05T21:58:42.009Z,8.03
2019-01-05T22:01:17.779Z,8.03
2019-01-05T22:04:02.814Z,8.20
2019-01-05T22:06:32.841Z,8.70
2019-01-05T22:09:02.955Z,8.33
2019-01-05T22:11:49.095Z,19.57
2019-01-05T22:14:35.790Z,7.87
2019-01-05T22:17:21.925Z,8.97
2019-01-05T22:19:51.902Z,7.67
2019-01-05T22:22:38.254Z,7.30
2019-01-05T22:25:17.473Z,8.63
2019-01-05T22:27:50.174Z,7.77
2019-01-05T22:30:29.335Z,6.50
2019-01-05T22:33:05.164Z,7.30
2019-01-05T22:35:41.079Z,7.50
2019-01-05T22:38:11.018Z,6.03
2019-01-05T22:40:55.780Z,7.53
2019-01-05T22:43:40.754Z,6.57
2019-01-05T22:46:16.530Z,6.57
2019-01-05T22:49:04.666Z,7.10
2019-01-05T22:51:51.295Z,6.80
2019-01-05T22:54:30.611Z,7.43
2019-01-05T22:57:16.931Z,6.73
2019-01-05T22:59:52.676Z,6.80
2019-01-05T23:02:25.175Z,14.07
2019-01-05T23:05:11.672Z,7.80
2019-01-05T23:07:57.666Z,7.17
2019-01-05T23:10:42.640Z,6.43
2019-01-05T23:13:15.530Z,6.53
2019-01-05T23:15:45.627Z,9.07
2019-01-05T23:18:18.456Z,9.87
2019-01-05T23:20:57.613Z,6.77
2019-01-05T23:23:37.225Z,6.60
2019-01-05T23:26:07.366Z,6.17
2019-01-05T23:28:37.339Z,6.23
2019-01-05T23:31:25.957Z,6.63
2019-01-05T23:33:56.144Z,6.53
2019-01-05T23:36:26.261Z,6.30
2019-01-05T23:39:12.431Z,6.67
2019-01-05T23:41:45.223Z,5.70
2019-01-05T23:44:31.707Z,5.63
2019-01-05T23:47:02.045Z,5.73
2019-01-05T23:49:32.003Z,6.37
2019-01-05T23:52:14.014Z,7.17
2019-01-05T23:54:46.982Z,6.90
2019-01-05T23:57:29.061Z,22.47
